sensor_id;sensor_type;location;lat;lon;timestamp;P1;durP1;ratioP1;P2;durP2;ratioP2
43676;SDS011;29275;48.800;18.102;2023-04-15T00:00:30;3.22;;;2.28;;
43676;SDS011;29275;48.800;18.102;2023-04-15T00:03:33;8.57;;;4.60;;
43676;SDS011;29275;48.800;18.102;2023-04-15T00:06:37;10.68;;;5.88;;
43676;SDS011;29275;48.800;18.102;2023-04-15T00:09:41;17.63;;;7.63;;
43676;SDS011;29275;48.800;18.102;2023-04-15T00:12:44;13.10;;;5.70;;
43676;SDS011;29275;48.800;18.102;2023-04-15T00:15:46;5.65;;;3.38;;
43676;SDS011;29275;48.800;18.102;2023-04-15T00:18:49;15.57;;;5.95;;
43676;SDS011;29275;48.800;18.102;2023-04-15T00:21:53;14.70;;;5.95;;
43676;SDS011;29275;48.800;18.102;2023-04-15T00:24:55;3.60;;;2.20;;
43676;SDS011;29275;48.800;18.102;2023-04-15T00:27:58;12.15;;;5.47;;
43676;SDS011;29275;48.800;18.102;2023-04-15T00:31:01;5.72;;;3.47;;
43676;SDS011;29275;48.800;18.102;2023-04-15T00:34:04;4.10;;;2.58;;
43676;SDS011;29275;48.800;18.102;2023-04-15T00:37:07;5.95;;;2.88;;
43676;SDS011;29275;48.800;18.102;2023-04-15T00:40:11;6.10;;;3.38;;
43676;SDS011;29275;48.800;18.102;2023-04-15T00:43:18;3.10;;;1.70;;
43676;SDS011;29275;48.800;18.102;2023-04-15T00:46:20;4.20;;;2.33;;
43676;SDS011;29275;48.800;18.102;2023-04-15T00:49:24;4.10;;;1.92;;
43676;SDS011;29275;48.800;18.102;2023-04-15T00:52:27;2.20;;;1.40;;
43676;SDS011;29275;48.800;18.102;2023-04-15T00:55:29;1.88;;;1.20;;
43676;SDS011;29275;48.800;18.102;2023-04-15T00:58:32;2.05;;;1.15;;
43676;SDS011;29275;48.800;18.102;2023-04-15T01:01:35;2.15;;;1.13;;
43676;SDS011;29275;48.800;18.102;2023-04-15T01:04:38;2.38;;;1.15;;
43676;SDS011;29275;48.800;18.102;2023-04-15T01:07:41;6.65;;;1.10;;
43676;SDS011;29275;48.800;18.102;2023-04-15T01:10:44;1.85;;;1.08;;
43676;SDS011;29275;48.800;18.102;2023-04-15T01:13:47;2.00;;;1.02;;
43676;SDS011;29275;48.800;18.102;2023-04-15T01:16:51;4.07;;;1.85;;
43676;SDS011;29275;48.800;18.102;2023-04-15T01:19:57;2.85;;;1.63;;
43676;SDS011;29275;48.800;18.102;2023-04-15T01:23:00;2.40;;;1.73;;
43676;SDS011;29275;48.800;18.102;2023-04-15T01:26:03;6.00;;;1.90;;
43676;SDS011;29275;48.800;18.102;2023-04-15T01:29:07;3.05;;;1.50;;
43676;SDS011;29275;48.800;18.102;2023-04-15T01:32:10;2.05;;;1.25;;
43676;SDS011;29275;48.800;18.102;2023-04-15T01:35:13;2.92;;;1.05;;
43676;SDS011;29275;48.800;18.102;2023-04-15T01:38:16;2.25;;;1.40;;
43676;SDS011;29275;48.800;18.102;2023-04-15T01:41:25;1.63;;;0.93;;
43676;SDS011;29275;48.800;18.102;2023-04-15T01:44:29;2.88;;;1.60;;
43676;SDS011;29275;48.800;18.102;2023-04-15T01:47:31;3.03;;;1.38;;
43676;SDS011;29275;48.800;18.102;2023-04-15T01:50:34;2.67;;;1.27;;
43676;SDS011;29275;48.800;18.102;2023-04-15T01:53:39;1.95;;;1.15;;
43676;SDS011;29275;48.800;18.102;2023-04-15T01:56:42;2.25;;;1.35;;
43676;SDS011;29275;48.800;18.102;2023-04-15T01:59:45;3.63;;;1.95;;
43676;SDS011;29275;48.800;18.102;2023-04-15T02:02:49;2.28;;;1.52;;
43676;SDS011;29275;48.800;18.102;2023-04-15T02:05:52;2.58;;;1.48;;
43676;SDS011;29275;48.800;18.102;2023-04-15T02:08:55;4.53;;;2.38;;
43676;SDS011;29275;48.800;18.102;2023-04-15T02:11:58;4.35;;;2.17;;
43676;SDS011;29275;48.800;18.102;2023-04-15T02:15:03;3.65;;;2.30;;
43676;SDS011;29275;48.800;18.102;2023-04-15T02:18:06;3.38;;;2.28;;
43676;SDS011;29275;48.800;18.102;2023-04-15T02:21:10;5.25;;;3.28;;
43676;SDS011;29275;48.800;18.102;2023-04-15T02:24:12;7.63;;;4.53;;
43676;SDS011;29275;48.800;18.102;2023-04-15T02:27:15;12.95;;;9.35;;
43676;SDS011;29275;48.800;18.102;2023-04-15T02:30:19;7.07;;;4.20;;
43676;SDS011;29275;48.800;18.102;2023-04-15T02:33:22;3.03;;;2.00;;
43676;SDS011;29275;48.800;18.102;2023-04-15T02:36:26;5.25;;;2.00;;
43676;SDS011;29275;48.800;18.102;2023-04-15T02:39:28;4.70;;;2.28;;
43676;SDS011;29275;48.800;18.102;2023-04-15T02:42:31;2.03;;;1.20;;
43676;SDS011;29275;48.800;18.102;2023-04-15T02:45:35;2.97;;;1.10;;
43676;SDS011;29275;48.800;18.102;2023-04-15T02:48:39;3.85;;;2.45;;
43676;SDS011;29275;48.800;18.102;2023-04-15T02:51:43;4.63;;;1.75;;
43676;SDS011;29275;48.800;18.102;2023-04-15T02:57:53;4.47;;;1.60;;
43676;SDS011;29275;48.800;18.102;2023-04-15T03:00:57;3.65;;;2.00;;
43676;SDS011;29275;48.800;18.102;2023-04-15T03:04:00;2.70;;;1.50;;
43676;SDS011;29275;48.800;18.102;2023-04-15T03:07:03;3.33;;;1.77;;
43676;SDS011;29275;48.800;18.102;2023-04-15T03:10:06;3.42;;;1.90;;
43676;SDS011;29275;48.800;18.102;2023-04-15T03:13:10;2.95;;;1.73;;
43676;SDS011;29275;48.800;18.102;2023-04-15T03:16:14;2.90;;;1.70;;
43676;SDS011;29275;48.800;18.102;2023-04-15T03:19:17;3.30;;;1.67;;
43676;SDS011;29275;48.800;18.102;2023-04-15T03:22:20;2.75;;;1.58;;
43676;SDS011;29275;48.800;18.102;2023-04-15T03:25:23;3.70;;;2.00;;
43676;SDS011;29275;48.800;18.102;2023-04-15T03:28:26;4.13;;;1.95;;
43676;SDS011;29275;48.800;18.102;2023-04-15T03:31:32;3.42;;;1.90;;
43676;SDS011;29275;48.800;18.102;2023-04-15T03:34:34;3.13;;;1.92;;
43676;SDS011;29275;48.800;18.102;2023-04-15T03:37:38;3.58;;;1.92;;
43676;SDS011;29275;48.800;18.102;2023-04-15T03:40:41;2.50;;;1.70;;
43676;SDS011;29275;48.800;18.102;2023-04-15T03:43:44;2.97;;;1.85;;
43676;SDS011;29275;48.800;18.102;2023-04-15T03:46:47;4.68;;;2.10;;
43676;SDS011;29275;48.800;18.102;2023-04-15T03:49:50;3.35;;;1.80;;
43676;SDS011;29275;48.800;18.102;2023-04-15T03:52:53;3.25;;;2.08;;
43676;SDS011;29275;48.800;18.102;2023-04-15T03:55:55;3.60;;;2.03;;
43676;SDS011;29275;48.800;18.102;2023-04-15T03:58:58;2.97;;;2.00;;
43676;SDS011;29275;48.800;18.102;2023-04-15T04:02:01;3.35;;;1.92;;
43676;SDS011;29275;48.800;18.102;2023-04-15T04:05:04;3.97;;;2.03;;
43676;SDS011;29275;48.800;18.102;2023-04-15T04:08:07;3.80;;;2.00;;
43676;SDS011;29275;48.800;18.102;2023-04-15T04:11:09;3.72;;;2.08;;
43676;SDS011;29275;48.800;18.102;2023-04-15T04:14:12;2.75;;;1.75;;
43676;SDS011;29275;48.800;18.102;2023-04-15T04:17:15;3.83;;;1.60;;
43676;SDS011;29275;48.800;18.102;2023-04-15T04:20:17;2.75;;;1.58;;
43676;SDS011;29275;48.800;18.102;2023-04-15T04:23:20;3.55;;;1.70;;
43676;SDS011;29275;48.800;18.102;2023-04-15T04:26:23;3.45;;;2.03;;
43676;SDS011;29275;48.800;18.102;2023-04-15T04:29:26;3.28;;;1.70;;
43676;SDS011;29275;48.800;18.102;2023-04-15T04:32:28;3.17;;;2.00;;
43676;SDS011;29275;48.800;18.102;2023-04-15T04:35:31;3.15;;;1.85;;
43676;SDS011;29275;48.800;18.102;2023-04-15T04:38:36;3.97;;;2.25;;
43676;SDS011;29275;48.800;18.102;2023-04-15T04:41:38;3.28;;;1.80;;
43676;SDS011;29275;48.800;18.102;2023-04-15T04:44:41;3.28;;;1.77;;
43676;SDS011;29275;48.800;18.102;2023-04-15T04:47:44;4.15;;;2.17;;
43676;SDS011;29275;48.800;18.102;2023-04-15T04:50:48;4.40;;;1.60;;
43676;SDS011;29275;48.800;18.102;2023-04-15T04:53:50;2.92;;;1.70;;
43676;SDS011;29275;48.800;18.102;2023-04-15T04:56:53;2.90;;;1.60;;
43676;SDS011;29275;48.800;18.102;2023-04-15T04:59:56;2.70;;;1.73;;
43676;SDS011;29275;48.800;18.102;2023-04-15T05:02:59;2.50;;;1.60;;
43676;SDS011;29275;48.800;18.102;2023-04-15T05:06:02;2.65;;;1.58;;
43676;SDS011;29275;48.800;18.102;2023-04-15T05:09:07;3.70;;;1.92;;
43676;SDS011;29275;48.800;18.102;2023-04-15T05:12:10;2.13;;;1.45;;
43676;SDS011;29275;48.800;18.102;2023-04-15T05:15:16;2.30;;;1.30;;
43676;SDS011;29275;48.800;18.102;2023-04-15T05:18:19;2.08;;;1.15;;
43676;SDS011;29275;48.800;18.102;2023-04-15T05:21:22;2.85;;;1.42;;
43676;SDS011;29275;48.800;18.102;2023-04-15T05:24:25;2.20;;;1.33;;
43676;SDS011;29275;48.800;18.102;2023-04-15T05:27:27;3.00;;;1.88;;
43676;SDS011;29275;48.800;18.102;2023-04-15T05:30:30;6.38;;;3.10;;
43676;SDS011;29275;48.800;18.102;2023-04-15T05:33:33;6.10;;;2.78;;
43676;SDS011;29275;48.800;18.102;2023-04-15T05:36:36;5.22;;;3.53;;
43676;SDS011;29275;48.800;18.102;2023-04-15T05:39:39;5.07;;;2.30;;
43676;SDS011;29275;48.800;18.102;2023-04-15T05:42:41;3.55;;;2.28;;
43676;SDS011;29275;48.800;18.102;2023-04-15T05:45:45;4.68;;;2.30;;
43676;SDS011;29275;48.800;18.102;2023-04-15T05:48:47;5.03;;;2.88;;
43676;SDS011;29275;48.800;18.102;2023-04-15T05:51:50;4.72;;;3.10;;
43676;SDS011;29275;48.800;18.102;2023-04-15T05:54:53;4.60;;;3.25;;
43676;SDS011;29275;48.800;18.102;2023-04-15T05:57:56;5.35;;;3.38;;
43676;SDS011;29275;48.800;18.102;2023-04-15T06:00:59;4.72;;;2.80;;
43676;SDS011;29275;48.800;18.102;2023-04-15T06:04:02;5.45;;;2.15;;
43676;SDS011;29275;48.800;18.102;2023-04-15T06:07:05;3.72;;;2.00;;
43676;SDS011;29275;48.800;18.102;2023-04-15T06:10:08;5.55;;;3.17;;
43676;SDS011;29275;48.800;18.102;2023-04-15T06:13:12;8.40;;;3.95;;
43676;SDS011;29275;48.800;18.102;2023-04-15T06:16:15;8.90;;;3.95;;
43676;SDS011;29275;48.800;18.102;2023-04-15T06:19:17;10.32;;;4.93;;
43676;SDS011;29275;48.800;18.102;2023-04-15T06:22:21;11.93;;;5.40;;
43676;SDS011;29275;48.800;18.102;2023-04-15T06:25:24;12.63;;;6.35;;
43676;SDS011;29275;48.800;18.102;2023-04-15T06:28:27;9.18;;;5.30;;
43676;SDS011;29275;48.800;18.102;2023-04-15T06:31:30;10.55;;;6.32;;
43676;SDS011;29275;48.800;18.102;2023-04-15T06:34:33;10.00;;;5.38;;
43676;SDS011;29275;48.800;18.102;2023-04-15T06:37:36;6.80;;;4.43;;
43676;SDS011;29275;48.800;18.102;2023-04-15T06:40:38;7.50;;;3.45;;
43676;SDS011;29275;48.800;18.102;2023-04-15T06:43:41;4.78;;;2.50;;
43676;SDS011;29275;48.800;18.102;2023-04-15T06:46:44;5.95;;;3.63;;
43676;SDS011;29275;48.800;18.102;2023-04-15T06:49:47;5.72;;;3.35;;
43676;SDS011;29275;48.800;18.102;2023-04-15T06:52:50;4.78;;;2.70;;
43676;SDS011;29275;48.800;18.102;2023-04-15T06:55:53;5.68;;;2.53;;
43676;SDS011;29275;48.800;18.102;2023-04-15T06:58:56;3.65;;;2.38;;
43676;SDS011;29275;48.800;18.102;2023-04-15T07:01:59;4.55;;;2.78;;
43676;SDS011;29275;48.800;18.102;2023-04-15T07:05:04;2.97;;;1.92;;
43676;SDS011;29275;48.800;18.102;2023-04-15T07:08:08;3.55;;;2.50;;
43676;SDS011;29275;48.800;18.102;2023-04-15T07:11:11;2.95;;;2.00;;
43676;SDS011;29275;48.800;18.102;2023-04-15T07:14:14;3.58;;;2.10;;
43676;SDS011;29275;48.800;18.102;2023-04-15T07:17:17;3.75;;;2.15;;
43676;SDS011;29275;48.800;18.102;2023-04-15T07:20:20;3.38;;;1.77;;
43676;SDS011;29275;48.800;18.102;2023-04-15T07:23:23;2.55;;;1.60;;
43676;SDS011;29275;48.800;18.102;2023-04-15T07:26:26;3.00;;;1.83;;
43676;SDS011;29275;48.800;18.102;2023-04-15T07:29:29;2.90;;;2.00;;
43676;SDS011;29275;48.800;18.102;2023-04-15T07:32:32;4.55;;;1.65;;
43676;SDS011;29275;48.800;18.102;2023-04-15T07:35:34;2.97;;;1.88;;
43676;SDS011;29275;48.800;18.102;2023-04-15T07:38:38;3.55;;;2.20;;
43676;SDS011;29275;48.800;18.102;2023-04-15T07:41:41;7.32;;;3.55;;
43676;SDS011;29275;48.800;18.102;2023-04-15T07:44:44;3.83;;;2.38;;
43676;SDS011;29275;48.800;18.102;2023-04-15T07:47:50;3.00;;;1.85;;
43676;SDS011;29275;48.800;18.102;2023-04-15T07:50:53;6.97;;;3.60;;
43676;SDS011;29275;48.800;18.102;2023-04-15T07:53:56;5.07;;;2.55;;
43676;SDS011;29275;48.800;18.102;2023-04-15T07:56:59;7.38;;;3.22;;
43676;SDS011;29275;48.800;18.102;2023-04-15T08:00:03;4.68;;;2.67;;
43676;SDS011;29275;48.800;18.102;2023-04-15T08:03:13;4.82;;;2.85;;
43676;SDS011;29275;48.800;18.102;2023-04-15T08:06:17;3.15;;;2.20;;
43676;SDS011;29275;48.800;18.102;2023-04-15T08:09:20;4.72;;;2.35;;
43676;SDS011;29275;48.800;18.102;2023-04-15T08:12:22;3.53;;;2.15;;
43676;SDS011;29275;48.800;18.102;2023-04-15T08:15:25;3.60;;;1.92;;
43676;SDS011;29275;48.800;18.102;2023-04-15T08:18:29;5.45;;;2.03;;
43676;SDS011;29275;48.800;18.102;2023-04-15T08:21:32;3.28;;;2.00;;
43676;SDS011;29275;48.800;18.102;2023-04-15T08:24:36;4.07;;;2.55;;
43676;SDS011;29275;48.800;18.102;2023-04-15T08:27:40;3.17;;;1.90;;
43676;SDS011;29275;48.800;18.102;2023-04-15T08:30:43;3.38;;;1.92;;
43676;SDS011;29275;48.800;18.102;2023-04-15T08:33:46;3.22;;;2.13;;
43676;SDS011;29275;48.800;18.102;2023-04-15T08:36:49;3.97;;;2.38;;
43676;SDS011;29275;48.800;18.102;2023-04-15T08:39:52;2.75;;;1.98;;
43676;SDS011;29275;48.800;18.102;2023-04-15T08:42:55;3.03;;;1.90;;
43676;SDS011;29275;48.800;18.102;2023-04-15T08:45:59;3.65;;;1.90;;
43676;SDS011;29275;48.800;18.102;2023-04-15T08:49:03;3.03;;;1.98;;
43676;SDS011;29275;48.800;18.102;2023-04-15T08:52:06;3.75;;;2.13;;
43676;SDS011;29275;48.800;18.102;2023-04-15T08:55:10;3.28;;;1.63;;
43676;SDS011;29275;48.800;18.102;2023-04-15T08:58:15;2.30;;;1.38;;
43676;SDS011;29275;48.800;18.102;2023-04-15T09:01:18;2.33;;;1.65;;
43676;SDS011;29275;48.800;18.102;2023-04-15T09:04:21;2.88;;;1.70;;
43676;SDS011;29275;48.800;18.102;2023-04-15T09:07:24;3.17;;;1.98;;
43676;SDS011;29275;48.800;18.102;2023-04-15T09:10:28;2.65;;;1.50;;
43676;SDS011;29275;48.800;18.102;2023-04-15T09:13:32;3.08;;;1.70;;
43676;SDS011;29275;48.800;18.102;2023-04-15T09:20:14;2.92;;;1.58;;
43676;SDS011;29275;48.800;18.102;2023-04-15T09:23:18;2.95;;;1.50;;
43676;SDS011;29275;48.800;18.102;2023-04-15T09:26:34;3.35;;;1.70;;
43676;SDS011;29275;48.800;18.102;2023-04-15T09:29:41;3.63;;;1.40;;
43676;SDS011;29275;48.800;18.102;2023-04-15T09:32:51;1.92;;;1.20;;
43676;SDS011;29275;48.800;18.102;2023-04-15T09:36:04;2.30;;;1.40;;
43676;SDS011;29275;48.800;18.102;2023-04-15T09:39:07;2.30;;;1.30;;
43676;SDS011;29275;48.800;18.102;2023-04-15T09:42:10;2.15;;;1.30;;
43676;SDS011;29275;48.800;18.102;2023-04-15T09:45:13;3.13;;;1.65;;
43676;SDS011;29275;48.800;18.102;2023-04-15T09:48:20;2.72;;;1.85;;
43676;SDS011;29275;48.800;18.102;2023-04-15T09:51:32;2.50;;;1.73;;
43676;SDS011;29275;48.800;18.102;2023-04-15T09:54:37;2.53;;;1.65;;
43676;SDS011;29275;48.800;18.102;2023-04-15T09:57:40;2.97;;;2.03;;
43676;SDS011;29275;48.800;18.102;2023-04-15T10:00:43;2.88;;;1.80;;
43676;SDS011;29275;48.800;18.102;2023-04-15T10:03:46;2.45;;;1.50;;
43676;SDS011;29275;48.800;18.102;2023-04-15T10:06:49;2.53;;;2.00;;
43676;SDS011;29275;48.800;18.102;2023-04-15T10:09:52;2.78;;;1.98;;
43676;SDS011;29275;48.800;18.102;2023-04-15T10:12:56;2.75;;;1.70;;
43676;SDS011;29275;48.800;18.102;2023-04-15T10:16:05;3.22;;;2.20;;
43676;SDS011;29275;48.800;18.102;2023-04-15T10:19:17;2.22;;;1.52;;
43676;SDS011;29275;48.800;18.102;2023-04-15T10:22:22;3.17;;;1.70;;
43676;SDS011;29275;48.800;18.102;2023-04-15T10:25:25;2.50;;;1.48;;
43676;SDS011;29275;48.800;18.102;2023-04-15T10:28:28;2.47;;;1.70;;
43676;SDS011;29275;48.800;18.102;2023-04-15T10:31:31;2.65;;;1.77;;
43676;SDS011;29275;48.800;18.102;2023-04-15T10:34:34;3.58;;;1.95;;
43676;SDS011;29275;48.800;18.102;2023-04-15T10:37:37;6.95;;;4.32;;
43676;SDS011;29275;48.800;18.102;2023-04-15T10:40:40;7.63;;;3.97;;
43676;SDS011;29275;48.800;18.102;2023-04-15T10:43:59;4.20;;;2.42;;
43676;SDS011;29275;48.800;18.102;2023-04-15T10:47:12;2.72;;;1.67;;
43676;SDS011;29275;48.800;18.102;2023-04-15T10:50:16;15.27;;;8.45;;
43676;SDS011;29275;48.800;18.102;2023-04-15T10:53:29;4.30;;;3.05;;
43676;SDS011;29275;48.800;18.102;2023-04-15T10:56:33;7.40;;;2.20;;
43676;SDS011;29275;48.800;18.102;2023-04-15T10:59:37;3.08;;;1.88;;
43676;SDS011;29275;48.800;18.102;2023-04-15T11:03:04;2.58;;;1.55;;
43676;SDS011;29275;48.800;18.102;2023-04-15T11:06:09;3.75;;;2.10;;
43676;SDS011;29275;48.800;18.102;2023-04-15T11:09:31;2.03;;;1.50;;
43676;SDS011;29275;48.800;18.102;2023-04-15T11:12:36;4.07;;;1.38;;
43676;SDS011;29275;48.800;18.102;2023-04-15T11:15:45;3.20;;;1.73;;
43676;SDS011;29275;48.800;18.102;2023-04-15T11:18:55;2.55;;;1.40;;
43676;SDS011;29275;48.800;18.102;2023-04-15T11:22:05;4.25;;;1.42;;
43676;SDS011;29275;48.800;18.102;2023-04-15T11:25:20;3.10;;;1.70;;
43676;SDS011;29275;48.800;18.102;2023-04-15T11:28:28;1.90;;;1.20;;
43676;SDS011;29275;48.800;18.102;2023-04-15T11:31:31;2.90;;;1.50;;
43676;SDS011;29275;48.800;18.102;2023-04-15T11:34:34;2.50;;;1.48;;
43676;SDS011;29275;48.800;18.102;2023-04-15T11:37:37;2.40;;;1.42;;
43676;SDS011;29275;48.800;18.102;2023-04-15T11:40:41;5.35;;;2.63;;
43676;SDS011;29275;48.800;18.102;2023-04-15T11:43:48;2.30;;;1.63;;
43676;SDS011;29275;48.800;18.102;2023-04-15T11:46:53;2.97;;;1.73;;
43676;SDS011;29275;48.800;18.102;2023-04-15T11:49:56;2.20;;;1.67;;
43676;SDS011;29275;48.800;18.102;2023-04-15T11:53:00;3.47;;;1.45;;
43676;SDS011;29275;48.800;18.102;2023-04-15T11:56:08;3.58;;;2.00;;
43676;SDS011;29275;48.800;18.102;2023-04-15T11:59:12;3.05;;;1.83;;
43676;SDS011;29275;48.800;18.102;2023-04-15T12:02:15;2.95;;;1.23;;
43676;SDS011;29275;48.800;18.102;2023-04-15T12:05:18;3.67;;;2.15;;
43676;SDS011;29275;48.800;18.102;2023-04-15T12:08:22;4.80;;;1.60;;
43676;SDS011;29275;48.800;18.102;2023-04-15T12:14:28;2.13;;;1.55;;
43676;SDS011;29275;48.800;18.102;2023-04-15T12:17:34;2.58;;;1.63;;
43676;SDS011;29275;48.800;18.102;2023-04-15T12:20:53;2.20;;;1.48;;
43676;SDS011;29275;48.800;18.102;2023-04-15T12:23:56;2.38;;;1.42;;
43676;SDS011;29275;48.800;18.102;2023-04-15T12:27:03;1.90;;;1.25;;
43676;SDS011;29275;48.800;18.102;2023-04-15T12:33:10;2.42;;;1.70;;
43676;SDS011;29275;48.800;18.102;2023-04-15T12:36:13;2.45;;;1.70;;
43676;SDS011;29275;48.800;18.102;2023-04-15T12:39:16;3.63;;;1.70;;
43676;SDS011;29275;48.800;18.102;2023-04-15T12:42:19;2.65;;;1.80;;
43676;SDS011;29275;48.800;18.102;2023-04-15T12:45:24;2.53;;;1.55;;
43676;SDS011;29275;48.800;18.102;2023-04-15T12:48:30;3.47;;;1.60;;
43676;SDS011;29275;48.800;18.102;2023-04-15T12:51:35;3.17;;;1.33;;
43676;SDS011;29275;48.800;18.102;2023-04-15T12:54:38;1.45;;;0.93;;
43676;SDS011;29275;48.800;18.102;2023-04-15T12:57:44;1.92;;;1.35;;
43676;SDS011;29275;48.800;18.102;2023-04-15T13:00:47;1.40;;;0.93;;
43676;SDS011;29275;48.800;18.102;2023-04-15T13:03:51;1.85;;;0.98;;
43676;SDS011;29275;48.800;18.102;2023-04-15T13:06:54;1.83;;;0.90;;
43676;SDS011;29275;48.800;18.102;2023-04-15T13:09:57;2.08;;;1.10;;
43676;SDS011;29275;48.800;18.102;2023-04-15T13:13:00;2.60;;;1.20;;
43676;SDS011;29275;48.800;18.102;2023-04-15T13:16:04;1.77;;;0.85;;
43676;SDS011;29275;48.800;18.102;2023-04-15T13:19:07;1.83;;;1.08;;
43676;SDS011;29275;48.800;18.102;2023-04-15T13:22:11;1.23;;;0.68;;
43676;SDS011;29275;48.800;18.102;2023-04-15T13:25:14;1.48;;;0.60;;
43676;SDS011;29275;48.800;18.102;2023-04-15T13:28:17;3.80;;;1.00;;
43676;SDS011;29275;48.800;18.102;2023-04-15T13:31:19;1.55;;;0.85;;
43676;SDS011;29275;48.800;18.102;2023-04-15T13:34:22;1.20;;;0.60;;
43676;SDS011;29275;48.800;18.102;2023-04-15T13:37:26;2.55;;;0.50;;
43676;SDS011;29275;48.800;18.102;2023-04-15T13:40:30;1.27;;;0.50;;
43676;SDS011;29275;48.800;18.102;2023-04-15T13:43:33;0.75;;;0.40;;
43676;SDS011;29275;48.800;18.102;2023-04-15T13:46:35;0.80;;;0.40;;
43676;SDS011;29275;48.800;18.102;2023-04-15T13:49:40;2.67;;;0.55;;
43676;SDS011;29275;48.800;18.102;2023-04-15T13:52:43;0.60;;;0.40;;
43676;SDS011;29275;48.800;18.102;2023-04-15T13:55:46;2.40;;;0.60;;
43676;SDS011;29275;48.800;18.102;2023-04-15T13:58:50;1.45;;;0.63;;
43676;SDS011;29275;48.800;18.102;2023-04-15T14:01:54;1.20;;;0.68;;
43676;SDS011;29275;48.800;18.102;2023-04-15T14:04:57;2.00;;;0.90;;
43676;SDS011;29275;48.800;18.102;2023-04-15T14:08:00;1.20;;;0.70;;
43676;SDS011;29275;48.800;18.102;2023-04-15T14:11:03;1.70;;;0.60;;
43676;SDS011;29275;48.800;18.102;2023-04-15T14:14:06;1.52;;;0.50;;
43676;SDS011;29275;48.800;18.102;2023-04-15T14:17:09;3.22;;;1.70;;
43676;SDS011;29275;48.800;18.102;2023-04-15T14:20:12;1.67;;;0.77;;
43676;SDS011;29275;48.800;18.102;2023-04-15T14:23:18;1.10;;;0.50;;
43676;SDS011;29275;48.800;18.102;2023-04-15T14:26:21;1.75;;;1.10;;
43676;SDS011;29275;48.800;18.102;2023-04-15T14:29:24;1.77;;;1.08;;
43676;SDS011;29275;48.800;18.102;2023-04-15T14:32:27;2.45;;;1.88;;
43676;SDS011;29275;48.800;18.102;2023-04-15T14:35:31;2.25;;;1.20;;
43676;SDS011;29275;48.800;18.102;2023-04-15T14:38:34;1.65;;;0.75;;
43676;SDS011;29275;48.800;18.102;2023-04-15T14:41:41;0.98;;;0.60;;
43676;SDS011;29275;48.800;18.102;2023-04-15T14:44:44;0.82;;;0.60;;
43676;SDS011;29275;48.800;18.102;2023-04-15T14:47:47;1.75;;;1.00;;
43676;SDS011;29275;48.800;18.102;2023-04-15T14:50:51;1.30;;;1.00;;
43676;SDS011;29275;48.800;18.102;2023-04-15T14:53:54;2.80;;;1.30;;
43676;SDS011;29275;48.800;18.102;2023-04-15T14:56:56;2.10;;;1.00;;
43676;SDS011;29275;48.800;18.102;2023-04-15T14:59:59;1.48;;;0.80;;
43676;SDS011;29275;48.800;18.102;2023-04-15T15:03:03;1.20;;;0.70;;
43676;SDS011;29275;48.800;18.102;2023-04-15T15:06:08;3.53;;;1.50;;
43676;SDS011;29275;48.800;18.102;2023-04-15T15:09:10;1.50;;;0.82;;
43676;SDS011;29275;48.800;18.102;2023-04-15T15:12:13;1.60;;;0.68;;
43676;SDS011;29275;48.800;18.102;2023-04-15T15:15:16;1.83;;;0.82;;
43676;SDS011;29275;48.800;18.102;2023-04-15T15:18:29;1.38;;;0.73;;
43676;SDS011;29275;48.800;18.102;2023-04-15T15:21:33;1.88;;;0.50;;
43676;SDS011;29275;48.800;18.102;2023-04-15T15:24:36;1.30;;;0.90;;
43676;SDS011;29275;48.800;18.102;2023-04-15T15:27:38;1.65;;;0.80;;
43676;SDS011;29275;48.800;18.102;2023-04-15T15:30:41;2.50;;;0.75;;
43676;SDS011;29275;48.800;18.102;2023-04-15T15:33:44;1.08;;;0.73;;
43676;SDS011;29275;48.800;18.102;2023-04-15T15:36:47;2.63;;;1.20;;
43676;SDS011;29275;48.800;18.102;2023-04-15T15:39:50;2.67;;;1.38;;
43676;SDS011;29275;48.800;18.102;2023-04-15T15:42:54;3.13;;;1.52;;
43676;SDS011;29275;48.800;18.102;2023-04-15T15:45:57;1.63;;;0.90;;
43676;SDS011;29275;48.800;18.102;2023-04-15T15:49:01;1.85;;;0.82;;
43676;SDS011;29275;48.800;18.102;2023-04-15T15:52:05;1.70;;;0.80;;
43676;SDS011;29275;48.800;18.102;2023-04-15T15:55:08;2.42;;;0.90;;
43676;SDS011;29275;48.800;18.102;2023-04-15T15:58:11;1.60;;;0.90;;
43676;SDS011;29275;48.800;18.102;2023-04-15T16:01:14;2.05;;;0.90;;
43676;SDS011;29275;48.800;18.102;2023-04-15T16:04:17;4.00;;;0.98;;
43676;SDS011;29275;48.800;18.102;2023-04-15T16:07:20;2.67;;;1.67;;
43676;SDS011;29275;48.800;18.102;2023-04-15T16:10:23;2.13;;;1.52;;
43676;SDS011;29275;48.800;18.102;2023-04-15T16:13:28;3.25;;;1.30;;
43676;SDS011;29275;48.800;18.102;2023-04-15T16:16:32;2.40;;;1.13;;
43676;SDS011;29275;48.800;18.102;2023-04-15T16:19:35;3.17;;;1.33;;
43676;SDS011;29275;48.800;18.102;2023-04-15T16:22:37;1.50;;;1.00;;
43676;SDS011;29275;48.800;18.102;2023-04-15T16:25:41;5.03;;;3.90;;
43676;SDS011;29275;48.800;18.102;2023-04-15T16:28:45;4.47;;;2.22;;
43676;SDS011;29275;48.800;18.102;2023-04-15T16:31:48;2.60;;;1.15;;
43676;SDS011;29275;48.800;18.102;2023-04-15T16:34:51;1.25;;;0.90;;
43676;SDS011;29275;48.800;18.102;2023-04-15T16:37:54;1.05;;;0.60;;
43676;SDS011;29275;48.800;18.102;2023-04-15T16:40:57;4.10;;;2.53;;
43676;SDS011;29275;48.800;18.102;2023-04-15T16:44:01;4.93;;;2.83;;
43676;SDS011;29275;48.800;18.102;2023-04-15T16:47:04;4.88;;;2.25;;
43676;SDS011;29275;48.800;18.102;2023-04-15T16:50:08;5.40;;;2.70;;
43676;SDS011;29275;48.800;18.102;2023-04-15T16:53:17;5.70;;;3.45;;
43676;SDS011;29275;48.800;18.102;2023-04-15T16:56:20;3.78;;;1.92;;
43676;SDS011;29275;48.800;18.102;2023-04-15T16:59:24;2.38;;;1.42;;
43676;SDS011;29275;48.800;18.102;2023-04-15T17:02:27;6.15;;;3.35;;
43676;SDS011;29275;48.800;18.102;2023-04-15T17:05:31;3.00;;;1.65;;
43676;SDS011;29275;48.800;18.102;2023-04-15T17:08:34;4.57;;;1.92;;
43676;SDS011;29275;48.800;18.102;2023-04-15T17:11:36;5.28;;;3.00;;
43676;SDS011;29275;48.800;18.102;2023-04-15T17:14:41;28.75;;;11.40;;
43676;SDS011;29275;48.800;18.102;2023-04-15T17:17:44;10.32;;;5.53;;
43676;SDS011;29275;48.800;18.102;2023-04-15T17:20:47;17.17;;;8.98;;
43676;SDS011;29275;48.800;18.102;2023-04-15T17:23:50;19.02;;;11.75;;
43676;SDS011;29275;48.800;18.102;2023-04-15T17:26:53;17.17;;;10.30;;
43676;SDS011;29275;48.800;18.102;2023-04-15T17:29:56;11.18;;;7.50;;
43676;SDS011;29275;48.800;18.102;2023-04-15T17:32:59;17.10;;;11.65;;
43676;SDS011;29275;48.800;18.102;2023-04-15T17:36:02;9.77;;;6.90;;
43676;SDS011;29275;48.800;18.102;2023-04-15T17:39:06;20.75;;;10.63;;
43676;SDS011;29275;48.800;18.102;2023-04-15T17:42:09;32.42;;;16.83;;
43676;SDS011;29275;48.800;18.102;2023-04-15T17:45:13;14.98;;;9.02;;
43676;SDS011;29275;48.800;18.102;2023-04-15T17:48:16;10.20;;;6.45;;
43676;SDS011;29275;48.800;18.102;2023-04-15T17:51:19;8.68;;;5.22;;
43676;SDS011;29275;48.800;18.102;2023-04-15T17:54:23;7.35;;;3.58;;
43676;SDS011;29275;48.800;18.102;2023-04-15T17:57:26;3.25;;;1.60;;
43676;SDS011;29275;48.800;18.102;2023-04-15T18:00:28;1.40;;;0.77;;
43676;SDS011;29275;48.800;18.102;2023-04-15T18:03:31;1.40;;;0.70;;
43676;SDS011;29275;48.800;18.102;2023-04-15T18:06:34;3.13;;;0.60;;
43676;SDS011;29275;48.800;18.102;2023-04-15T18:09:37;1.17;;;0.60;;
43676;SDS011;29275;48.800;18.102;2023-04-15T18:12:40;1.25;;;0.50;;
43676;SDS011;29275;48.800;18.102;2023-04-15T18:15:43;1.33;;;0.50;;
43676;SDS011;29275;48.800;18.102;2023-04-15T18:18:48;0.85;;;0.50;;
43676;SDS011;29275;48.800;18.102;2023-04-15T18:21:51;1.13;;;0.50;;